createdAt,value
2016-05-07T00:00:18.965Z,51.87
2016-05-07T00:01:18.796Z,51.39
2016-05-07T00:02:18.939Z,51.68
2016-05-07T00:03:18.942Z,52.22
2016-05-07T00:04:18.929Z,51.84
2016-05-07T00:05:18.916Z,51.97
2016-05-07T00:06:18.747Z,52.03
2016-05-07T00:07:18.890Z,52.03
2016-05-07T00:08:18.878Z,52.03
2016-05-07T00:09:18.864Z,52.99
2016-05-07T00:10:18.851Z,52.42
2016-05-07T00:11:18.853Z,52.22
2016-05-07T00:12:18.826Z,52.7
2016-05-07T00:13:18.813Z,52.32
2016-05-07T00:14:18.815Z,52.99
2016-05-07T00:15:18.647Z,52.61
2016-05-07T00:16:18.789Z,52.61
2016-05-07T00:17:18.776Z,52.61
2016-05-07T00:18:18.763Z,52.32
2016-05-07T00:19:18.766Z,52.22
2016-05-07T00:20:18.738Z,52.7
2016-05-07T00:21:18.741Z,52.89
2016-05-07T00:22:18.727Z,52.61
2016-05-07T00:23:18.590Z,52.61
2016-05-07T00:24:18.701Z,53.08
2016-05-07T00:25:18.688Z,52.7
2016-05-07T00:26:18.676Z,53.37
2016-05-07T00:27:18.976Z,53.75
2016-05-07T00:28:18.649Z,53.63
2016-05-07T00:29:18.637Z,53.66
2016-05-07T00:30:18.623Z,53.63
2016-05-07T00:31:18.471Z,53.53
2016-05-07T00:32:18.614Z,53.82
2016-05-07T00:33:18.601Z,53.16
2016-05-07T00:34:18.790Z,53.92
2016-05-07T00:35:18.575Z,54.68
2016-05-07T00:36:18.562Z,54.3
2016-05-07T00:37:18.548Z,55.83
2016-05-07T00:38:18.537Z,54.78
2016-05-07T00:39:18.523Z,54.3
2016-05-07T00:40:18.511Z,54.78
2016-05-07T00:41:18.513Z,54.3
2016-05-07T00:42:18.500Z,54.78
2016-05-07T00:43:18.486Z,54.3
2016-05-07T00:44:18.489Z,54.02
2016-05-07T00:45:18.461Z,54.78
2016-05-07T00:46:18.448Z,54.88
2016-05-07T00:47:18.279Z,54.97
2016-05-07T00:48:18.422Z,54.49
2016-05-07T00:49:18.410Z,54.88
2016-05-07T00:50:18.396Z,54.78
2016-05-07T00:51:18.399Z,54.97
2016-05-07T00:52:18.214Z,54.88
2016-05-07T00:53:18.357Z,55.74
2016-05-07T00:54:18.360Z,54.97
2016-05-07T00:55:18.347Z,54.78
2016-05-07T00:56:18.335Z,55.35
2016-05-07T00:57:18.166Z,55.64
2016-05-07T00:58:18.151Z,55.83
2016-05-07T00:59:18.296Z,55.74
2016-05-07T01:00:18.126Z,55.83
2016-05-07T01:01:18.270Z,56.4
2016-05-07T01:02:18.272Z,55.93
2016-05-07T01:03:18.259Z,56.31
2016-05-07T01:04:18.246Z,56.5
2016-05-07T01:05:18.218Z,56.4
2016-05-07T01:06:18.221Z,55.99
2016-05-07T01:07:18.208Z,56.47
2016-05-07T01:08:18.195Z,56.57
2016-05-07T01:09:18.181Z,56.47
2016-05-07T01:10:18.184Z,56.57
2016-05-07T01:11:18.156Z,56.95
2016-05-07T01:12:18.300Z,56.76
2016-05-07T01:13:18.130Z,56.85
2016-05-07T01:14:18.117Z,57.33
2016-05-07T01:15:17.948Z,56.76
2016-05-07T01:16:18.091Z,57.14
2016-05-07T01:17:18.094Z,56.85
2016-05-07T01:18:17.909Z,56.57
2016-05-07T01:19:18.068Z,56.85
2016-05-07T01:20:18.039Z,57.14
2016-05-07T01:21:18.041Z,56.85
2016-05-07T01:22:18.030Z,56.76
2016-05-07T01:23:18.016Z,57.43
2016-05-07T01:24:18.004Z,56.76
2016-05-07T01:25:17.990Z,56.95
2016-05-07T01:26:17.978Z,56.85
2016-05-07T01:27:17.979Z,56.67
2016-05-07T01:28:17.952Z,58.1
2016-05-07T01:29:17.939Z,57.81
2016-05-07T01:30:17.926Z,57.9
2016-05-07T01:31:17.912Z,57.43
2016-05-07T01:32:17.901Z,58.29
2016-05-07T01:33:17.887Z,58.29
2016-05-07T01:34:17.718Z,58.19
2016-05-07T01:35:17.862Z,58.58
2016-05-07T01:36:17.864Z,58
2016-05-07T01:37:17.851Z,58
2016-05-07T01:38:17.837Z,58
2016-05-07T01:39:17.825Z,58.19
2016-05-07T01:40:17.812Z,58.67
2016-05-07T01:41:17.808Z,58.58
2016-05-07T01:42:17.627Z,58.86
2016-05-07T01:43:17.770Z,58.76
2016-05-07T01:44:18.504Z,58.86
2016-05-07T01:45:17.741Z,59.05
2016-05-07T01:46:17.743Z,59.15
2016-05-07T01:47:17.715Z,58.86
2016-05-07T01:48:17.718Z,59.81
2016-05-07T01:49:17.704Z,59.24
2016-05-07T01:50:17.691Z,59.34
2016-05-07T01:51:17.523Z,59.44
2016-05-07T01:52:17.665Z,59.63
2016-05-07T01:53:17.652Z,59.63
2016-05-07T01:54:17.640Z,60.01
2016-05-07T01:55:17.627Z,60.1
2016-05-07T01:56:17.614Z,60.01
2016-05-07T01:57:17.789Z,60.1
2016-05-07T01:58:17.603Z,60.1
2016-05-07T01:59:17.419Z,60.17
2016-05-07T02:00:17.422Z,60.64
2016-05-07T02:01:17.564Z,60.74
2016-05-07T02:02:17.380Z,60.46
2016-05-07T02:03:17.367Z,60.55
2016-05-07T02:04:17.510Z,60.84
2016-05-07T02:05:17.513Z,60.93
2016-05-07T02:06:17.500Z,61.6
2016-05-07T02:07:17.488Z,61.89
2016-05-07T02:08:17.474Z,61.41
2016-05-07T02:09:17.446Z,61.6
2016-05-07T02:10:17.448Z,61.32
2016-05-07T02:11:17.420Z,61.98
2016-05-07T02:12:17.423Z,61.69
2016-05-07T02:13:17.410Z,61.69
2016-05-07T02:14:17.240Z,61.79
2016-05-07T02:15:17.384Z,61.41
2016-05-07T02:16:17.386Z,62.27
2016-05-07T02:17:17.358Z,61.79
2016-05-07T02:18:17.345Z,61.79
2016-05-07T02:19:17.332Z,61.98
2016-05-07T02:20:17.319Z,61.69
2016-05-07T02:21:17.150Z,61.69
2016-05-07T02:22:17.136Z,61.98
2016-05-07T02:23:17.296Z,61.6
2016-05-07T02:24:17.270Z,61.69
2016-05-07T02:25:17.257Z,61.89
2016-05-07T02:26:17.245Z,62.08
2016-05-07T02:27:17.559Z,62.37
2016-05-07T02:28:17.218Z,63.03
2016-05-07T02:29:17.206Z,63.32
2016-05-07T02:30:17.193Z,63.23
2016-05-07T02:31:17.180Z,62.65
2016-05-07T02:32:17.166Z,62.84
2016-05-07T02:33:17.153Z,62.75
2016-05-07T02:34:17.345Z,62.84
2016-05-07T02:35:17.128Z,63.03
2016-05-07T02:36:17.115Z,62.94
2016-05-07T02:37:17.102Z,63.32
2016-05-07T02:38:17.088Z,63.51
2016-05-07T02:39:17.092Z,63.03
2016-05-07T02:40:17.080Z,63.03
2016-05-07T02:41:17.066Z,62.84
2016-05-07T02:42:18.647Z,63.67
2016-05-07T02:43:17.024Z,63.42
2016-05-07T02:44:17.027Z,64.28
2016-05-07T02:45:17.014Z,63.51
2016-05-07T02:46:17.002Z,63.76
2016-05-07T02:47:16.973Z,63.86
2016-05-07T02:48:16.976Z,63.96
2016-05-07T02:49:16.962Z,63.86
2016-05-07T02:50:16.949Z,64.05
2016-05-07T02:51:16.937Z,63.99
2016-05-07T02:52:16.924Z,64.43
2016-05-07T02:53:16.910Z,63.7
2016-05-07T02:54:16.898Z,64.18
2016-05-07T02:55:16.885Z,64.53
2016-05-07T02:56:16.872Z,64.43
2016-05-07T02:57:16.703Z,63.76
2016-05-07T02:58:16.893Z,63.99
2016-05-07T02:59:16.676Z,63.86
2016-05-07T03:00:16.820Z,64.15
2016-05-07T03:01:16.807Z,64.34
2016-05-07T03:02:16.794Z,64.37
2016-05-07T03:03:16.781Z,64.15
2016-05-07T03:04:16.769Z,64.53
2016-05-07T03:05:16.756Z,65.2
2016-05-07T03:06:16.742Z,64.62
2016-05-07T03:07:16.730Z,64.34
2016-05-07T03:08:16.716Z,64.53
2016-05-07T03:09:16.703Z,65.01
2016-05-07T03:10:16.691Z,64.72
2016-05-07T03:11:16.678Z,64.62
2016-05-07T03:12:16.665Z,64.62
2016-05-07T03:13:16.652Z,65.2
2016-05-07T03:14:16.654Z,64.72
2016-05-07T03:15:16.627Z,65.2
2016-05-07T03:16:16.613Z,65.2
2016-05-07T03:17:16.600Z,65.1
2016-05-07T03:18:16.431Z,64.43
2016-05-07T03:19:16.418Z,64.81
2016-05-07T03:20:16.561Z,64.43
2016-05-07T03:21:16.393Z,64.91
2016-05-07T03:22:16.535Z,64.81
2016-05-07T03:23:16.523Z,64.81
2016-05-07T03:24:16.509Z,64.53
2016-05-07T03:25:16.497Z,64.72
2016-05-07T03:26:16.484Z,64.81
2016-05-07T03:27:16.674Z,64.91
2016-05-07T03:28:16.458Z,64.91
2016-05-07T03:29:16.461Z,65.01
2016-05-07T03:30:16.431Z,65.39
2016-05-07T03:31:16.420Z,65.3
2016-05-07T03:32:16.422Z,65.1
2016-05-07T03:33:16.409Z,64.81
2016-05-07T03:34:16.395Z,65.2
2016-05-07T03:35:16.368Z,65.77
2016-05-07T03:36:16.198Z,65.3
2016-05-07T03:37:16.342Z,65.1
2016-05-07T03:38:16.172Z,65.77
2016-05-07T03:39:16.159Z,66.06
2016-05-07T03:40:16.302Z,65.77
2016-05-07T03:41:16.290Z,66.35
2016-05-07T03:42:16.277Z,66.35
2016-05-07T03:43:16.263Z,65.96
2016-05-07T03:44:16.251Z,66.25
2016-05-07T03:45:16.238Z,66.22
2016-05-07T03:46:16.225Z,66.5
2016-05-07T03:47:16.213Z,66.88
2016-05-07T03:48:16.043Z,66.78
2016-05-07T03:49:16.186Z,66.22
2016-05-07T03:50:16.174Z,66.78
2016-05-07T03:51:16.004Z,66.41
2016-05-07T03:52:16.148Z,66.6
2016-05-07T03:53:16.134Z,66.69
2016-05-07T03:54:16.121Z,68.51
2016-05-07T03:55:16.109Z,67.93
2016-05-07T03:56:16.095Z,67.36
2016-05-07T03:57:16.099Z,67.55
2016-05-07T03:58:16.070Z,67.36
2016-05-07T03:59:16.057Z,67.17
2016-05-07T04:00:16.044Z,67.46
2016-05-07T04:01:16.031Z,67.74
2016-05-07T04:02:16.018Z,67.93
2016-05-07T04:03:15.848Z,67.74
2016-05-07T04:04:16.008Z,67.55
2016-05-07T04:05:15.979Z,67.46
2016-05-07T04:06:15.967Z,67.36
2016-05-07T04:07:15.953Z,67.55
2016-05-07T04:08:15.941Z,67.07
2016-05-07T04:09:15.928Z,67.36
2016-05-07T04:10:15.758Z,67.74
2016-05-07T04:11:15.745Z,67.74
2016-05-07T04:12:16.014Z,68.12
2016-05-07T04:13:15.875Z,67.93
2016-05-07T04:14:15.863Z,68.12
2016-05-07T04:15:15.850Z,67.55
2016-05-07T04:16:15.837Z,67.83
2016-05-07T04:17:15.824Z,67.74
2016-05-07T04:18:15.811Z,67.74
2016-05-07T04:19:15.799Z,68.12
2016-05-07T04:20:15.785Z,68.12
2016-05-07T04:21:15.616Z,67.93
2016-05-07T04:22:15.759Z,67.83
2016-05-07T04:23:15.762Z,68.03
2016-05-07T04:24:15.734Z,68.12
2016-05-07T04:25:15.565Z,67.36
2016-05-07T04:26:15.723Z,67.36
2016-05-07T04:27:15.913Z,67.74
2016-05-07T04:28:15.698Z,67.55
2016-05-07T04:29:15.684Z,67.46
2016-05-07T04:30:15.656Z,68.88
2016-05-07T04:31:15.643Z,68.26
2016-05-07T04:32:15.630Z,67.65
2016-05-07T04:33:15.617Z,67.17
2016-05-07T04:34:15.807Z,67.01
2016-05-07T04:35:15.591Z,67.58
2016-05-07T04:36:15.579Z,67.93
2016-05-07T04:37:15.565Z,67.17
2016-05-07T04:38:15.552Z,66.92
2016-05-07T04:39:15.384Z,66.72
2016-05-07T04:40:15.527Z,66.92
2016-05-07T04:41:15.513Z,66.72
2016-05-07T04:42:15.500Z,67.21
2016-05-07T04:43:15.489Z,66.92
2016-05-07T04:44:15.475Z,67.21
2016-05-07T04:45:15.461Z,67.58
2016-05-07T04:46:15.449Z,69.02
2016-05-07T04:47:15.436Z,67.97
2016-05-07T04:48:15.424Z,67.4
2016-05-07T04:49:15.410Z,67.77
2016-05-07T04:50:15.397Z,66.92
2016-05-07T04:51:15.385Z,66.92
2016-05-07T04:52:15.371Z,66.82
2016-05-07T04:53:15.358Z,66.72
2016-05-07T04:54:15.189Z,66.53
2016-05-07T04:55:15.176Z,66.53
2016-05-07T04:56:15.163Z,66.25
2016-05-07T04:57:15.307Z,66.25
2016-05-07T04:58:15.293Z,65.96
2016-05-07T04:59:15.281Z,65.96
2016-05-07T05:00:15.112Z,65.87
2016-05-07T05:01:15.255Z,65.87
2016-05-07T05:02:15.242Z,65.67
2016-05-07T05:03:15.229Z,65.2
2016-05-07T05:04:15.216Z,65.1
2016-05-07T05:05:15.204Z,64.94
2016-05-07T05:06:15.206Z,64.47
2016-05-07T05:07:15.192Z,65.04
2016-05-07T05:08:15.164Z,64.65
2016-05-07T05:09:15.011Z,64.56
2016-05-07T05:10:15.154Z,64.47
2016-05-07T05:11:15.142Z,64.75
2016-05-07T05:12:15.206Z,64.75
2016-05-07T05:13:15.116Z,64.85
2016-05-07T05:14:15.086Z,64.28
2016-05-07T05:15:15.089Z,64.56
2016-05-07T05:16:15.077Z,64.09
2016-05-07T05:17:15.064Z,63.99
2016-05-07T05:18:14.894Z,63.89
2016-05-07T05:19:15.038Z,64.12
2016-05-07T05:20:15.025Z,63.35
2016-05-07T05:21:14.855Z,63.8
2016-05-07T05:22:15.016Z,62.97
2016-05-07T05:23:14.986Z,63.16
2016-05-07T05:24:14.973Z,63.07
2016-05-07T05:25:14.960Z,63.07
2016-05-07T05:26:14.947Z,63.07
2016-05-07T05:27:15.106Z,63.07
2016-05-07T05:28:14.921Z,62.59
2016-05-07T05:29:14.752Z,62.3
2016-05-07T05:30:14.896Z,62.49
2016-05-07T05:31:14.882Z,62.21
2016-05-07T05:32:14.870Z,61.92
2016-05-07T05:33:14.701Z,62.11
2016-05-07T05:34:14.843Z,61.54
2016-05-07T05:35:14.846Z,61.28
2016-05-07T05:36:14.818Z,61.66
2016-05-07T05:37:14.805Z,61.38
2016-05-07T05:38:14.808Z,61.19
2016-05-07T05:39:14.795Z,60.99
2016-05-07T05:40:14.781Z,60.71
2016-05-07T05:41:14.770Z,60.8
2016-05-07T05:42:15.053Z,60.8
2016-05-07T05:43:14.742Z,60.8
2016-05-07T05:44:14.731Z,60.61
2016-05-07T05:45:14.717Z,60.52
2016-05-07T05:46:14.705Z,60.33
2016-05-07T05:47:14.691Z,60.8
2016-05-07T05:48:14.678Z,60.64
2016-05-07T05:49:14.666Z,60.26
2016-05-07T05:50:14.668Z,60.23
2016-05-07T05:51:14.639Z,60.45
2016-05-07T05:52:14.642Z,61.02
2016-05-07T05:53:14.630Z,60.83
2016-05-07T05:54:14.616Z,61.69
2016-05-07T05:55:14.604Z,61.41
2016-05-07T05:56:14.591Z,61.41
2016-05-07T05:57:14.593Z,61.22
2016-05-07T05:58:14.565Z,60.45
2016-05-07T05:59:14.568Z,60.35
2016-05-07T06:00:14.539Z,59.97
2016-05-07T06:01:14.526Z,59.69
2016-05-07T06:02:14.529Z,59.4
2016-05-07T06:03:14.359Z,59.81
2016-05-07T06:04:14.346Z,59.52
2016-05-07T06:05:14.490Z,58.95
2016-05-07T06:06:14.477Z,58.86
2016-05-07T06:07:14.479Z,59.05
2016-05-07T06:08:14.451Z,58.86
2016-05-07T06:09:14.438Z,59.05
2016-05-07T06:10:14.426Z,58.76
2016-05-07T06:11:14.428Z,58.86
2016-05-07T06:12:14.414Z,58.66
2016-05-07T06:13:14.386Z,59.14
2016-05-07T06:14:14.389Z,58.95
2016-05-07T06:15:14.376Z,58.86
2016-05-07T06:16:14.364Z,59.08
2016-05-07T06:17:14.350Z,58.31
2016-05-07T06:18:14.337Z,57.92
2016-05-07T06:19:14.325Z,58.02
2016-05-07T06:20:14.312Z,58.12
2016-05-07T06:21:14.299Z,58.02
2016-05-07T06:22:14.145Z,58.98
2016-05-07T06:23:14.679Z,59.84
2016-05-07T06:24:15.838Z,59.94
2016-05-07T06:25:14.263Z,59.55
2016-05-07T06:26:14.265Z,60.13
2016-05-07T06:27:14.080Z,59.84
2016-05-07T06:28:14.224Z,59.65
2016-05-07T06:29:14.226Z,58.59
2016-05-07T06:30:14.213Z,60.22
2016-05-07T06:31:14.200Z,58.24
2016-05-07T06:32:14.187Z,57.28
2016-05-07T06:33:14.019Z,58.05
2016-05-07T06:34:14.365Z,57.86
2016-05-07T06:35:14.148Z,57.76
2016-05-07T06:36:14.152Z,57.76
2016-05-07T06:37:14.138Z,57.38
2016-05-07T06:38:14.126Z,57.67
2016-05-07T06:39:14.128Z,57.38
2016-05-07T06:40:14.115Z,57.76
2016-05-07T06:41:14.087Z,58.24
2016-05-07T06:42:14.089Z,58.56
2016-05-07T06:43:14.076Z,56.93
2016-05-07T06:44:14.094Z,57.95
2016-05-07T06:45:14.066Z,57.03
2016-05-07T06:46:14.053Z,56.93
2016-05-07T06:47:14.040Z,56.74
2016-05-07T06:48:14.012Z,56.83
2016-05-07T06:49:14.014Z,56.26
2016-05-07T06:50:14.002Z,56.26
2016-05-07T06:51:13.989Z,55.11
2016-05-07T06:52:13.819Z,54.46
2016-05-07T06:53:13.963Z,54.66
2016-05-07T06:54:13.966Z,54.56
2016-05-07T06:55:13.952Z,54.85
2016-05-07T06:56:13.939Z,55.13
2016-05-07T06:57:14.020Z,54.46
2016-05-07T06:58:13.914Z,54.56
2016-05-07T06:59:13.916Z,55.62
2016-05-07T07:00:13.903Z,52.57
2016-05-07T07:01:13.890Z,52
2016-05-07T07:02:13.877Z,51.42
2016-05-07T07:03:13.880Z,51.51
2016-05-07T07:04:13.868Z,51.81
2016-05-07T07:05:13.854Z,52.19
2016-05-07T07:06:13.841Z,51.83
2016-05-07T07:07:13.843Z,52.22
2016-05-07T07:08:13.832Z,52.5
2016-05-07T07:09:13.818Z,51.25
2016-05-07T07:10:13.805Z,51.64
2016-05-07T07:11:13.793Z,51.16
2016-05-07T07:12:13.670Z,50.78
2016-05-07T07:13:13.782Z,51.06
2016-05-07T07:14:13.769Z,50.58
2016-05-07T07:15:13.756Z,50.7
2016-05-07T07:16:13.758Z,51.47
2016-05-07T07:17:13.746Z,51.76
2016-05-07T07:18:13.734Z,50.51
2016-05-07T07:19:13.720Z,50.32
2016-05-07T07:20:13.722Z,50.42
2016-05-07T07:21:13.710Z,49.07
2016-05-07T07:22:13.713Z,49.48
2016-05-07T07:23:13.700Z,49.19
2016-05-07T07:24:13.687Z,50.44
2016-05-07T07:25:13.674Z,49.29
2016-05-07T07:26:13.661Z,49.38
2016-05-07T07:27:13.679Z,48.61
2016-05-07T07:28:13.650Z,49.19
2016-05-07T07:29:13.652Z,49.29
2016-05-07T07:30:13.485Z,49.29
2016-05-07T07:31:13.628Z,50.63
2016-05-07T07:32:13.615Z,49.67
2016-05-07T07:33:13.601Z,50.92
2016-05-07T07:34:13.604Z,50.66
2016-05-07T07:35:13.591Z,50.37
2016-05-07T07:36:13.579Z,49.51
2016-05-07T07:37:13.582Z,49.99
2016-05-07T07:38:13.568Z,49.31
2016-05-07T07:39:13.555Z,48.74
2016-05-07T07:40:13.557Z,46.74
2016-05-07T07:41:13.545Z,46.45
2016-05-07T07:42:13.548Z,47.03
2016-05-07T07:43:13.535Z,46.74
2016-05-07T07:44:13.537Z,45.68
2016-05-07T07:45:13.509Z,45.49
2016-05-07T07:46:13.527Z,46.57
2016-05-07T07:47:13.514Z,48.11
2016-05-07T07:48:13.486Z,47.92
2016-05-07T07:49:13.707Z,45.99
2016-05-07T07:50:13.475Z,44.84
2016-05-07T07:51:13.462Z,45.51
2016-05-07T07:52:13.464Z,46.38
2016-05-07T07:53:13.453Z,43.49
2016-05-07T07:54:13.299Z,44.84
2016-05-07T07:55:13.442Z,44.48
2016-05-07T07:56:13.430Z,45.05
2016-05-07T07:57:13.275Z,44.96
2016-05-07T07:58:13.419Z,46.31
2016-05-07T07:59:13.421Z,46.59
2016-05-07T08:00:13.408Z,45.34
2016-05-07T08:01:13.411Z,45.83
2016-05-07T08:02:13.399Z,44.49
2016-05-07T08:03:13.229Z,43.44
2016-05-07T08:04:13.388Z,44.49
2016-05-07T08:05:13.218Z,44.4
2016-05-07T08:06:13.378Z,43.05
2016-05-07T08:07:13.365Z,43.55
2016-05-07T08:08:13.196Z,44.32
2016-05-07T08:09:13.354Z,45.29
2016-05-07T08:10:13.342Z,44.9
2016-05-07T08:11:13.345Z,43.55
2016-05-07T08:12:13.331Z,41.84
2016-05-07T08:13:13.334Z,38.14
2016-05-07T08:14:13.321Z,35.58
2016-05-07T08:15:13.167Z,32.91
2016-05-07T08:16:13.312Z,32.84
2016-05-07T08:17:13.314Z,31.52
2016-05-07T08:18:13.316Z,30.29
2016-05-07T08:19:13.319Z,31.29
2016-05-07T08:20:13.306Z,30.82
2016-05-07T08:21:13.309Z,27.83
2016-05-07T08:22:13.296Z,27.64
2016-05-07T08:23:13.314Z,27.06
2016-05-07T08:24:13.300Z,26.69
2016-05-07T08:25:13.303Z,25.14
2016-05-07T08:26:13.292Z,23.01
2016-05-07T08:27:13.653Z,24.19
2016-05-07T08:28:13.296Z,24.39
2016-05-07T08:29:13.304Z,24.6
2016-05-07T08:30:13.349Z,23.34
2016-05-07T08:31:13.411Z,22.77
2016-05-07T08:32:13.441Z,23.37
2016-05-07T08:33:13.471Z,22.11
2016-05-07T08:34:13.716Z,22.59
2016-05-07T08:35:13.547Z,21.62
2016-05-07T08:36:13.566Z,21.23
2016-05-07T08:37:13.584Z,20.75
2016-05-07T08:38:13.632Z,19.38
2016-05-07T08:39:13.602Z,20.86
2016-05-07T08:40:13.455Z,20.27
2016-05-07T08:41:13.619Z,18.5
2016-05-07T08:42:14.206Z,18.3
2016-05-07T08:43:13.636Z,20.15
2016-05-07T08:44:13.644Z,18.59
2016-05-07T08:45:13.649Z,19.36
2016-05-07T08:46:13.654Z,19.75
2016-05-07T08:47:13.658Z,19.36
2016-05-07T08:48:13.662Z,19.84
2016-05-07T08:49:13.668Z,20.12
2016-05-07T08:50:13.671Z,20.61
2016-05-07T08:51:13.674Z,21.78
2016-05-07T08:52:13.678Z,21.1
2016-05-07T08:53:13.697Z,21.39
2016-05-07T08:54:13.700Z,22.56
2016-05-07T08:55:13.703Z,22.25
2016-05-07T08:56:13.691Z,23.43
2016-05-07T08:57:13.710Z,23.62
2016-05-07T08:58:13.713Z,23.22
2016-05-07T08:59:13.716Z,22.81
2016-05-07T09:00:13.702Z,22.92
2016-05-07T09:01:13.705Z,21.58
2016-05-07T09:02:13.708Z,21.98
2016-05-07T09:03:13.710Z,22.27
2016-05-07T09:04:13.714Z,20.51
2016-05-07T09:05:13.716Z,21.69
2016-05-07T09:06:13.719Z,22.56
2016-05-07T09:07:13.752Z,23.9
2016-05-07T09:08:13.740Z,24.96
2016-05-07T09:09:13.727Z,24.37
2016-05-07T09:10:13.730Z,24.06
2016-05-07T09:11:13.732Z,24.05
2016-05-07T09:12:14.095Z,25.7
2016-05-07T09:13:13.737Z,24.63
2016-05-07T09:14:13.741Z,24.55
2016-05-07T09:15:13.743Z,25.71
2016-05-07T09:16:13.746Z,25.23
2016-05-07T09:17:13.748Z,25.81
2016-05-07T09:18:13.736Z,24.54
2016-05-07T09:19:13.754Z,24.73
2016-05-07T09:20:13.742Z,24.91
2016-05-07T09:21:13.744Z,24.33
2016-05-07T09:22:13.589Z,24.72
2016-05-07T09:23:13.750Z,24.33
2016-05-07T09:24:13.752Z,24.63
2016-05-07T09:25:13.755Z,24.52
2016-05-07T09:26:13.758Z,24.71
2016-05-07T09:27:13.760Z,26.57
2016-05-07T09:28:13.763Z,23.66
2016-05-07T09:29:13.750Z,23.36
2016-05-07T09:30:13.611Z,23.29
2016-05-07T09:31:13.771Z,23.49
2016-05-07T09:32:13.773Z,25.34
2016-05-07T09:33:13.760Z,25.34
2016-05-07T09:34:13.763Z,24.38
2016-05-07T09:35:13.766Z,24.08
2016-05-07T09:36:13.769Z,24.87
2016-05-07T09:37:13.787Z,24.18
2016-05-07T09:38:13.774Z,25.04
2016-05-07T09:39:13.776Z,25.63
2016-05-07T09:40:13.779Z,25.23
2016-05-07T09:41:13.766Z,25.41
2016-05-07T09:42:13.769Z,24.73
2016-05-07T09:43:13.771Z,23.46
2016-05-07T09:44:13.774Z,25.32
2016-05-07T09:45:13.777Z,27.06
2016-05-07T09:46:13.624Z,25.98
2016-05-07T09:47:13.782Z,28.42
2016-05-07T09:48:13.770Z,25.69
2016-05-07T09:49:13.787Z,26.26
2016-05-07T09:50:13.790Z,28.3
2016-05-07T09:51:13.778Z,28
2016-05-07T09:52:13.781Z,27.82
2016-05-07T09:53:13.783Z,26.26
2016-05-07T09:54:13.786Z,24.73
2016-05-07T09:55:13.772Z,22.9
2016-05-07T09:56:13.776Z,21.35
2016-05-07T09:57:13.856Z,21.84
2016-05-07T09:58:13.781Z,24.94
2016-05-07T09:59:13.783Z,23.75
2016-05-07T10:00:13.786Z,24.54
2016-05-07T10:01:13.773Z,22.39
2016-05-07T10:02:13.776Z,21.89
2016-05-07T10:03:13.778Z,22.94
2016-05-07T10:04:13.625Z,24.68
2016-05-07T10:05:13.784Z,24.29
2016-05-07T10:06:13.786Z,24.97
2016-05-07T10:07:13.789Z,25.38
2016-05-07T10:08:13.792Z,21.71
2016-05-07T10:09:13.794Z,21.25
2016-05-07T10:10:13.782Z,24.35
2016-05-07T10:11:13.785Z,25.43
2016-05-07T10:12:13.709Z,23.79
2016-05-07T10:13:13.790Z,19.41
2016-05-07T10:14:13.793Z,20.1
2016-05-07T10:15:13.795Z,20.48
2016-05-07T10:16:13.798Z,18.84
2016-05-07T10:17:13.801Z,20.3
2016-05-07T10:18:13.804Z,18.64
2016-05-07T10:19:13.806Z,16.12
2016-05-07T10:20:13.809Z,17.29
2016-05-07T10:21:13.812Z,16.61
2016-05-07T10:22:13.814Z,16.71
2016-05-07T10:23:13.816Z,16.41
2016-05-07T10:24:13.819Z,17.29
2016-05-07T10:25:13.823Z,18.77
2016-05-07T10:26:13.669Z,14.57
2016-05-07T10:27:13.827Z,16.52
2016-05-07T10:28:13.857Z,15.17
2016-05-07T10:29:13.687Z,12.93
2016-05-07T10:30:13.846Z,11.54
2016-05-07T10:31:13.850Z,12.91
2016-05-07T10:32:13.852Z,11.82
2016-05-07T10:33:13.855Z,13.78
2016-05-07T10:34:14.060Z,13.88
2016-05-07T10:35:13.876Z,12.32
2016-05-07T10:36:13.878Z,13.4
2016-05-07T10:37:13.880Z,13.68
2016-05-07T10:38:13.884Z,14.45
2016-05-07T10:39:13.886Z,15.61
2016-05-07T10:40:13.888Z,14.93
2016-05-07T10:41:13.907Z,15.22
2016-05-07T10:42:13.910Z,15.12
2016-05-07T10:43:13.913Z,15.12
2016-05-07T10:44:13.915Z,15.22
2016-05-07T10:45:13.918Z,14.34
2016-05-07T10:46:13.921Z,14.45
2016-05-07T10:47:13.938Z,15.73
2016-05-07T10:48:13.941Z,16.61
2016-05-07T10:49:13.944Z,13.2
2016-05-07T10:50:13.947Z,15.84
2016-05-07T10:51:13.949Z,15.85
2016-05-07T10:52:13.968Z,15.17
2016-05-07T10:53:13.971Z,13.22
2016-05-07T10:54:13.973Z,16.55
2016-05-07T10:55:13.992Z,12.65
2016-05-07T10:56:13.994Z,12.74
2016-05-07T10:57:14.232Z,12.43
2016-05-07T10:58:14.000Z,13.02
2016-05-07T10:59:14.002Z,13.6
2016-05-07T11:00:14.006Z,12.73
2016-05-07T11:01:14.008Z,13.12
2016-05-07T11:02:14.010Z,15.06
2016-05-07T11:03:14.028Z,18.96
2016-05-07T11:04:14.032Z,16.62
2016-05-07T11:05:14.050Z,16.35
2016-05-07T11:06:14.036Z,16.75
2016-05-07T11:07:14.056Z,15.67
2016-05-07T11:08:14.058Z,17.25
2016-05-07T11:09:14.060Z,16.08
2016-05-07T11:10:14.063Z,14.42
2016-05-07T11:11:14.082Z,13.64
2016-05-07T11:12:14.085Z,12.27
2016-05-07T11:13:14.087Z,11.49
2016-05-07T11:14:14.090Z,12.17
2016-05-07T11:15:14.108Z,12.07
2016-05-07T11:16:14.110Z,12.86
2016-05-07T11:17:14.113Z,15.02
2016-05-07T11:18:14.132Z,12.17
2016-05-07T11:19:14.119Z,11.49
2016-05-07T11:20:14.121Z,11.58
2016-05-07T11:21:13.984Z,14.99
2016-05-07T11:22:14.142Z,13.13
2016-05-07T11:23:14.145Z,14.01
2016-05-07T11:24:13.992Z,14.42
2016-05-07T11:25:14.182Z,13.14
2016-05-07T11:26:14.168Z,12.57
2016-05-07T11:27:14.187Z,14.23
2016-05-07T11:28:14.190Z,11.68
2016-05-07T11:29:14.192Z,13.04
2016-05-07T11:30:14.195Z,14.89
2016-05-07T11:31:14.214Z,16.17
2016-05-07T11:32:14.216Z,15
2016-05-07T11:33:14.220Z,14.5
2016-05-07T11:34:14.222Z,13.82
2016-05-07T11:35:14.225Z,14.7
2016-05-07T11:36:14.227Z,13.51
2016-05-07T11:37:14.229Z,12.93
2016-05-07T11:38:14.248Z,13.51
2016-05-07T11:39:14.250Z,13.79
2016-05-07T11:40:14.253Z,14.76
2016-05-07T11:41:14.287Z,15.74
2016-05-07T11:42:14.869Z,13.2
2016-05-07T11:43:14.277Z,14.57
2016-05-07T11:44:14.123Z,16.53
2016-05-07T11:45:14.283Z,16.93
2016-05-07T11:46:14.301Z,18.41
2016-05-07T11:47:14.304Z,17.14
2016-05-07T11:48:14.306Z,15.19
2016-05-07T11:49:14.309Z,16.76
2016-05-07T11:50:14.343Z,16.77
2016-05-07T11:51:14.330Z,15.41
2016-05-07T11:52:14.348Z,15.2
2016-05-07T11:53:14.351Z,13.24
2016-05-07T11:54:14.338Z,14.81
2016-05-07T11:55:14.356Z,15.89
2016-05-07T11:56:14.359Z,13.75
2016-05-07T11:57:14.626Z,10.71
2016-05-07T11:58:14.365Z,12.28
2016-05-07T11:59:14.367Z,13.66
2016-05-07T12:00:14.385Z,11.7
2016-05-07T12:01:14.419Z,14.65
2016-05-07T12:02:14.406Z,14.16
2016-05-07T12:03:14.409Z,9.54
2016-05-07T12:04:14.255Z,12.09
2016-05-07T12:05:14.430Z,12.08
2016-05-07T12:06:14.433Z,14.03
2016-05-07T12:07:14.436Z,12.46
2016-05-07T12:08:14.313Z,13.54
2016-05-07T12:09:14.441Z,13.34
2016-05-07T12:10:14.662Z,13.15
2016-05-07T12:11:14.461Z,13.75
2016-05-07T12:12:14.464Z,13.55
2016-05-07T12:13:14.467Z,11.39
2016-05-07T12:14:14.485Z,11.48
2016-05-07T12:15:14.488Z,11.77
2016-05-07T12:16:14.491Z,14.3
2016-05-07T12:17:14.509Z,13.81
2016-05-07T12:18:14.512Z,15.29
2016-05-07T12:19:14.530Z,13.82
2016-05-07T12:20:14.518Z,12.56
2016-05-07T12:21:14.535Z,11.69
2016-05-07T12:22:14.538Z,13.66
2016-05-07T12:23:14.541Z,12.98
2016-05-07T12:24:14.543Z,13.76
2016-05-07T12:25:14.546Z,14.73
2016-05-07T12:26:14.564Z,15.32
2016-05-07T12:27:14.568Z,11.49
2016-05-07T12:28:14.570Z,11.2
2016-05-07T12:29:14.588Z,13.06
2016-05-07T12:30:14.590Z,11.77
2016-05-07T12:31:14.593Z,12.45
2016-05-07T12:32:14.596Z,13.32
2016-05-07T12:33:14.598Z,15.95
2016-05-07T12:34:14.618Z,16.15
2016-05-07T12:35:14.619Z,15.86
2016-05-07T12:36:14.623Z,14.12
2016-05-07T12:37:14.469Z,12.65
2016-05-07T12:38:14.644Z,15.11
2016-05-07T12:39:14.489Z,12.17
2016-05-07T12:40:14.650Z,11.78
2016-05-07T12:41:14.652Z,13.15
2016-05-07T12:42:14.670Z,12.77
2016-05-07T12:43:14.672Z,12.37
2016-05-07T12:44:14.519Z,11.1
2016-05-07T12:45:14.694Z,14.33
2016-05-07T12:46:14.697Z,13.16
2016-05-07T12:47:14.699Z,13.35
2016-05-07T12:48:14.702Z,12.18
2016-05-07T12:49:14.705Z,12.18
2016-05-07T12:50:14.551Z,12.28
2016-05-07T12:51:14.726Z,14.25
2016-05-07T12:52:14.571Z,14.24
2016-05-07T12:53:14.731Z,13.95
2016-05-07T12:54:14.733Z,12.28
2016-05-07T12:55:14.752Z,12.78